Metar z pełnej godziny Komunikat METAR ze strony awiacja.imgw.pl Metar G00 EPMO METAR EPMO 261200Z 28016KT 9999 BKN014 01/M01 Q1004 =